Time;durP1;ratioP1;P1;durP2;ratioP2;P2;SDS_P1;SDS_P2;PMS_P1;PMS_P2;Temp;Humidity;BMP_temperature;BMP_pressure;BME280_temperature;BME280_humidity;BME280_pressure;Samples;Min_cycle;Max_cycle;Signal;HPM_P1;HPM_P2
2020/12/08 00:00:21;;;;;;;21.15;6.03;;;;;;;-0.11;100.00;101566.38;1755898;81;21379;-57
2020/12/08 00:02:48;;;;;;;16.73;6.47;;;;;;;-0.11;100.00;101563.75;1763982;81;21113;-57
2020/12/08 00:05:17;;;;;;;25.75;7.42;;;;;;;-0.11;100.00;101572.06;1755834;81;21486;-57
2020/12/08 00:07:45;;;;;;;22.55;7.03;;;;;;;-0.11;100.00;101582.20;1764109;81;21482;-57
2020/12/08 00:10:18;;;;;;;21.12;6.75;;;;;;;-0.11;100.00;101566.38;1755701;81;21108;-57
2020/12/08 00:12:43;;;;;;;19.32;5.42;;;;;;;-0.08;100.00;101612.58;1763628;81;21607;-58
2020/12/08 00:15:10;;;;;;;16.73;5.85;;;;;;;-0.09;100.00;101601.58;1755689;81;21226;-59
2020/12/08 00:17:38;;;;;;;27.98;6.12;;;;;;;-0.11;100.00;101615.56;1763993;81;21064;-58
2020/12/08 00:20:07;;;;;;;31.93;8.60;;;;;;;-0.14;100.00;101583.42;1755735;81;21051;-58
2020/12/08 00:22:35;;;;;;;26.20;6.53;;;;;;;-0.13;100.00;101575.97;1764047;81;21038;-58
2020/12/08 00:25:07;;;;;;;23.57;6.90;;;;;;;-0.11;100.00;101602.38;1755910;81;22754;-58
2020/12/08 00:27:36;;;;;;;23.67;6.50;;;;;;;-0.13;100.00;101564.11;1763883;80;21168;-58
2020/12/08 00:30:10;;;;;;;26.35;7.40;;;;;;;-0.16;100.00;101579.86;1755715;81;21179;-58
2020/12/08 00:32:42;;;;;;;20.55;6.62;;;;;;;-0.17;100.00;101640.03;1764177;81;21123;-58
2020/12/08 00:35:10;;;;;;;20.72;5.78;;;;;;;-0.15;100.00;101600.09;1755806;81;21608;-58
2020/12/08 00:37:45;;;;;;;21.97;6.22;;;;;;;-0.18;100.00;101603.98;1764118;81;21250;-58
2020/12/08 00:40:14;;;;;;;33.75;7.15;;;;;;;-0.15;100.00;101546.05;1755570;81;21057;-58
2020/12/08 00:42:42;;;;;;;26.50;6.85;;;;;;;-0.12;100.00;101544.80;1755700;81;21104;-58
2020/12/08 00:45:11;;;;;;;35.63;7.70;;;;;;;-0.12;100.00;101609.39;1764086;81;21131;-58
2020/12/08 00:47:39;;;;;;;17.45;6.28;;;;;;;-0.14;100.00;101586.05;1755713;81;21159;-58
2020/12/08 00:50:07;;;;;;;25.02;6.58;;;;;;;-0.13;100.00;101623.42;1755610;81;21392;-58
2020/12/08 00:52:35;;;;;;;22.22;6.20;;;;;;;-0.12;100.00;101580.39;1764979;80;21097;-58
2020/12/08 00:55:04;;;;;;;23.67;6.60;;;;;;;-0.12;100.00;101576.88;1766425;81;20957;-58
2020/12/08 00:57:32;;;;;;;30.52;6.97;;;;;;;-0.14;100.00;101564.97;1766952;81;21003;-58
2020/12/08 01:00:00;;;;;;;19.48;6.37;;;;;;;-0.13;100.00;101559.28;1766774;81;21129;-58
2020/12/08 01:02:28;;;;;;;24.55;5.78;;;;;;;-0.14;100.00;101578.14;1766971;81;23066;-58
2020/12/08 01:04:56;;;;;;;24.50;6.67;;;;;;;-0.14;100.00;101582.10;1766706;81;21058;-58
2020/12/08 01:07:24;;;;;;;22.58;5.85;;;;;;;-0.13;100.00;101574.66;1767143;81;21639;-58
2020/12/08 01:09:52;;;;;;;17.15;6.40;;;;;;;-0.14;100.00;101574.19;1766752;81;21167;-58
2020/12/08 01:12:20;;;;;;;19.37;6.03;;;;;;;-0.15;100.00;101565.83;1767019;80;21165;-59
2020/12/08 01:14:48;;;;;;;30.90;6.10;;;;;;;-0.13;100.00;101571.14;1766676;81;22388;-57
2020/12/08 01:17:17;;;;;;;18.05;5.70;;;;;;;-0.11;100.00;101611.61;1766971;81;21170;-58
2020/12/08 01:19:44;;;;;;;17.15;6.03;;;;;;;-0.12;100.00;101606.75;1766722;81;20899;-58
2020/12/08 01:22:14;;;;;;;24.07;6.20;;;;;;;-0.13;100.00;101574.66;1766769;80;21078;-58
2020/12/08 01:24:41;;;;;;;19.62;6.28;;;;;;;-0.11;100.00;101589.20;1766699;81;21117;-58
2020/12/08 01:27:10;;;;;;;20.35;6.20;;;;;;;-0.11;100.00;101569.02;1751706;81;21390;-57
2020/12/08 01:29:37;;;;;;;15.83;6.90;;;;;;;-0.10;100.00;101568.16;1766573;81;21085;-57
2020/12/08 01:32:06;;;;;;;23.80;6.03;;;;;;;-0.10;100.00;101592.30;1767017;81;20944;-58
2020/12/08 01:34:37;;;;;;;21.10;5.83;;;;;;;-0.12;100.00;101567.20;1766612;81;21069;-58
2020/12/08 01:37:04;;;;;;;19.07;5.78;;;;;;;-0.14;100.00;101541.23;1767090;81;21042;-58
2020/12/08 01:39:32;;;;;;;18.17;6.53;;;;;;;-0.14;100.00;101574.19;1766681;81;21781;-58
2020/12/08 01:42:00;;;;;;;18.57;6.97;;;;;;;-0.12;100.00;101565.89;1766985;81;21042;-58
2020/12/08 01:44:30;;;;;;;20.08;5.87;;;;;;;-0.10;100.00;101552.34;1766779;81;21254;-58
2020/12/08 01:46:58;;;;;;;16.70;6.00;;;;;;;-0.10;100.00;101540.89;1766998;81;21178;-58
2020/12/08 01:49:26;;;;;;;28.17;6.67;;;;;;;-0.11;100.00;101554.52;1766767;81;21104;-58
2020/12/08 01:51:54;;;;;;;18.20;6.45;;;;;;;-0.11;100.00;101540.02;1766897;81;21350;-58
2020/12/08 01:54:22;;;;;;;15.80;5.62;;;;;;;-0.10;100.00;101548.39;1755822;80;21165;-58
2020/12/08 01:56:51;;;;;;;25.48;6.72;;;;;;;-0.09;100.00;101540.94;1755544;81;21128;-59
2020/12/08 01:59:19;;;;;;;28.27;6.45;;;;;;;-0.09;100.00;101565.98;1764018;81;21130;-58
2020/12/08 02:01:48;;;;;;;17.77;7.05;;;;;;;-0.12;100.00;101564.57;1753624;81;21085;-57
2020/12/08 02:04:16;;;;;;;22.60;6.83;;;;;;;-0.10;100.00;101534.30;1746785;81;22096;-57
2020/12/08 02:06:44;;;;;;;28.15;7.37;;;;;;;-0.10;100.00;101570.80;1755567;81;21069;-57
2020/12/08 02:09:14;;;;;;;23.35;7.08;;;;;;;-0.11;100.00;101570.75;1746663;81;21514;-57
2020/12/08 02:11:42;;;;;;;32.90;7.17;;;;;;;-0.13;100.00;101595.74;1755530;81;21186;-56
2020/12/08 02:14:10;;;;;;;19.20;6.72;;;;;;;-0.15;100.00;101553.96;1755584;81;21544;-55
2020/12/08 02:16:39;;;;;;;19.90;7.67;;;;;;;-0.14;100.00;101558.38;1755626;81;21482;-56
2020/12/08 02:19:07;;;;;;;22.30;6.75;;;;;;;-0.13;100.00;101563.23;1755586;81;21074;-56
2020/12/08 02:21:36;;;;;;;30.48;7.33;;;;;;;-0.14;100.00;101541.23;1764102;81;21197;-55
2020/12/08 02:24:17;;;;;;;26.50;7.43;;;;;;;-0.12;100.00;101535.57;1873082;76;22679;-54
2020/12/08 02:26:44;;;;;;;30.12;6.67;;;;;;;-0.19;100.00;101581.11;1841097;78;20906;-55
2020/12/08 02:29:14;;;;;;;23.47;7.60;;;;;;;-0.21;100.00;101568.33;1840988;78;21176;-56
2020/12/08 02:31:43;;;;;;;18.37;6.87;;;;;;;-0.24;100.00;101547.18;1841002;78;20918;-55
2020/12/08 02:34:12;;;;;;;18.98;6.53;;;;;;;-0.25;100.00;101525.63;1840998;78;21217;-55
2020/12/08 02:36:40;;;;;;;21.68;7.35;;;;;;;-0.25;100.00;101545.41;1841133;78;20974;-55
2020/12/08 02:39:08;;;;;;;35.38;8.43;;;;;;;-0.26;100.00;101553.72;1811162;78;21017;-55
2020/12/08 02:41:35;;;;;;;23.32;8.18;;;;;;;-0.25;100.00;101522.55;1840938;78;21363;-55
2020/12/08 02:44:04;;;;;;;24.65;8.03;;;;;;;-0.24;100.00;101543.23;1841031;77;20942;-55
2020/12/08 02:46:34;;;;;;;19.67;7.70;;;;;;;-0.23;100.00;101535.78;1840989;78;20906;-55
2020/12/08 02:49:02;;;;;;;33.53;7.72;;;;;;;-0.20;100.00;101543.34;1841117;78;21468;-55
2020/12/08 02:51:30;;;;;;;20.72;7.08;;;;;;;-0.21;100.00;101555.16;1840996;78;20958;-56
2020/12/08 02:54:00;;;;;;;16.80;7.10;;;;;;;-0.24;100.00;101551.13;1840782;78;21262;-56
2020/12/08 02:56:28;;;;;;;29.92;9.15;;;;;;;-0.25;100.00;101538.81;1840849;78;20978;-56
2020/12/08 02:58:58;;;;;;;27.45;7.75;;;;;;;-0.27;100.00;101532.63;1841058;78;21140;-56
2020/12/08 03:01:27;;;;;;;26.93;7.70;;;;;;;-0.27;100.00;101532.63;1840967;78;20981;-56
2020/12/08 03:03:57;;;;;;;25.90;8.28;;;;;;;-0.27;100.00;101543.16;1841089;78;21167;-56
2020/12/08 03:06:25;;;;;;;28.95;8.28;;;;;;;-0.30;100.00;101544.88;1841081;78;21530;-57
2020/12/08 03:08:54;;;;;;;29.20;7.60;;;;;;;-0.34;100.00;101556.17;1841017;78;21104;-56
2020/12/08 03:11:32;;;;;;;27.10;8.08;;;;;;;-0.38;100.00;101570.14;1841023;78;21012;-56
2020/12/08 03:14:01;;;;;;;22.77;6.50;;;;;;;-0.41;100.00;101542.41;1840181;78;21107;-57
2020/12/08 03:16:29;;;;;;;27.75;7.15;;;;;;;-0.41;100.00;101558.66;1841055;78;21116;-56
2020/12/08 03:18:57;;;;;;;28.85;7.25;;;;;;;-0.42;100.00;101565.66;1840962;78;21358;-57
2020/12/08 03:21:26;;;;;;;20.52;7.28;;;;;;;-0.43;100.00;101542.80;1841004;77;21484;-57
2020/12/08 03:23:54;;;;;;;17.65;6.53;;;;;;;-0.44;100.00;101552.88;1820195;77;21720;-57
2020/12/08 03:26:22;;;;;;;29.25;7.05;;;;;;;-0.44;100.00;101553.78;1849988;77;21446;-55
2020/12/08 03:28:51;;;;;;;22.67;8.28;;;;;;;-0.47;100.00;101550.18;1849871;77;21103;-55
2020/12/08 03:31:19;;;;;;;22.00;7.33;;;;;;;-0.48;100.00;101553.22;1849814;77;21346;-55
2020/12/08 03:33:47;;;;;;;38.55;8.35;;;;;;;-0.49;100.00;101561.11;1849662;77;21135;-56
2020/12/08 03:36:18;;;;;;;21.23;7.75;;;;;;;-0.52;100.00;101552.70;1849176;77;20913;-56
2020/12/08 03:38:47;;;;;;;24.27;7.90;;;;;;;-0.53;100.00;101557.95;1823357;77;21075;-56
2020/12/08 03:41:20;;;;;;;23.00;8.05;;;;;;;-0.55;100.00;101564.89;1849254;77;20918;-55
2020/12/08 03:43:50;;;;;;;19.43;7.80;;;;;;;-0.54;100.00;101564.08;1849372;77;22100;-56
2020/12/08 03:46:22;;;;;;;28.10;7.07;;;;;;;-0.54;100.00;101574.61;1849230;77;21129;-56
2020/12/08 03:48:51;;;;;;;21.20;7.20;;;;;;;-0.55;100.00;101609.27;1849329;77;21087;-56
2020/12/08 03:51:21;;;;;;;21.20;7.90;;;;;;;-0.56;100.00;101611.84;1849138;77;21123;-56
2020/12/08 03:53:48;;;;;;;23.32;7.80;;;;;;;-0.60;100.00;101593.78;1849291;77;21092;-56
2020/12/08 03:56:18;;;;;;;25.40;7.33;;;;;;;-0.63;100.00;101578.78;1849192;77;21362;-57
2020/12/08 03:58:46;;;;;;;22.85;7.55;;;;;;;-0.65;100.00;101587.07;1849170;77;21041;-56
2020/12/08 04:01:17;;;;;;;29.75;8.03;;;;;;;-0.66;100.00;101602.41;1849287;77;20925;-57
2020/12/08 04:03:49;;;;;;;24.83;7.70;;;;;;;-0.66;100.00;101581.34;1849213;77;21061;-56
2020/12/08 04:06:18;;;;;;;23.02;7.17;;;;;;;-0.68;100.00;101597.54;1849315;77;21076;-57
2020/12/08 04:08:47;;;;;;;22.52;7.03;;;;;;;-0.72;100.00;101635.19;1849170;77;22047;-57
2020/12/08 04:11:16;;;;;;;20.60;7.08;;;;;;;-0.74;100.00;101605.30;1849206;77;21092;-57
2020/12/08 04:13:45;;;;;;;20.72;7.62;;;;;;;-0.74;100.00;101638.22;1849130;77;21056;-57
2020/12/08 04:16:14;;;;;;;20.80;6.28;;;;;;;-0.75;100.00;101631.17;1849172;77;20925;-57
2020/12/08 04:18:43;;;;;;;22.10;7.70;;;;;;;-0.75;100.00;101620.63;1823491;77;21476;-57
2020/12/08 04:21:10;;;;;;;21.25;7.03;;;;;;;-0.75;99.89;101608.78;1849220;77;21531;-57
2020/12/08 04:23:38;;;;;;;25.10;8.40;;;;;;;-0.74;99.86;101615.83;1844757;77;21119;-56
2020/12/08 04:26:10;;;;;;;22.40;6.67;;;;;;;-0.73;99.63;101649.22;1840344;78;21036;-57
2020/12/08 04:28:42;;;;;;;18.62;7.12;;;;;;;-0.75;99.25;101595.17;1840362;78;21183;-56
2020/12/08 04:31:16;;;;;;;21.93;8.05;;;;;;;-0.77;99.13;101610.48;1811160;78;21523;-57
2020/12/08 04:33:44;;;;;;;18.15;6.83;;;;;;;-0.78;99.07;101604.73;1840657;78;21523;-56
2020/12/08 04:36:17;;;;;;;18.47;7.33;;;;;;;-0.78;99.33;101599.05;1840200;78;20898;-56
2020/12/08 04:38:44;;;;;;;15.35;6.92;;;;;;;-0.77;99.41;101602.59;1840362;78;20926;-56
2020/12/08 04:41:15;;;;;;;22.20;7.35;;;;;;;-0.80;99.21;101576.15;1840260;78;20970;-56
2020/12/08 04:43:42;;;;;;;21.52;7.60;;;;;;;-0.83;99.10;101561.59;1840150;78;21447;-57
2020/12/08 04:46:10;;;;;;;19.30;6.13;;;;;;;-0.87;99.16;101622.08;1840318;77;21187;-57
2020/12/08 04:48:37;;;;;;;24.32;6.47;;;;;;;-0.91;99.17;101616.27;1840263;77;21154;-57
2020/12/08 04:51:05;;;;;;;18.83;6.77;;;;;;;-0.93;99.56;101557.42;1840305;78;20930;-57
2020/12/08 04:53:33;;;;;;;15.38;6.35;;;;;;;-0.94;99.74;101583.70;1840300;78;20926;-57
2020/12/08 04:56:01;;;;;;;28.73;6.93;;;;;;;-0.92;99.94;101567.10;1840397;78;21169;-57
2020/12/08 04:58:28;;;;;;;17.37;6.67;;;;;;;-0.92;99.76;101553.03;1840269;78;21419;-57
2020/12/08 05:00:56;;;;;;;20.83;7.03;;;;;;;-0.88;100.00;101573.34;1840316;77;21004;-57
2020/12/08 05:03:27;;;;;;;17.83;7.13;;;;;;;-0.89;100.00;101563.23;1840201;78;21029;-57
2020/12/08 05:05:54;;;;;;;25.82;7.45;;;;;;;-0.89;99.94;101554.02;1840328;78;21033;-57
2020/12/08 05:08:22;;;;;;;20.30;7.17;;;;;;;-0.87;99.99;101565.91;1840331;77;20910;-57
2020/12/08 05:10:50;;;;;;;17.97;6.63;;;;;;;-0.84;99.82;101576.92;1840289;78;21374;-57
2020/12/08 05:13:26;;;;;;;17.03;6.90;;;;;;;-0.83;99.41;101586.61;1840217;78;21965;-57
2020/12/08 05:16:04;;;;;;;25.50;7.08;;;;;;;-0.83;99.04;101586.61;1840326;78;21446;-57
2020/12/08 05:18:33;;;;;;;19.77;7.07;;;;;;;-0.81;99.11;101597.66;1840295;78;21045;-56
2020/12/08 05:21:10;;;;;;;24.53;8.37;;;;;;;-0.77;99.21;101588.11;1840240;78;20986;-56
2020/12/08 05:23:44;;;;;;;17.98;6.92;;;;;;;-0.76;99.32;101594.70;1840204;77;21594;-56
2020/12/08 05:26:13;;;;;;;16.37;6.67;;;;;;;-0.74;99.47;101585.54;1840322;78;21060;-56
2020/12/08 05:28:42;;;;;;;20.70;6.27;;;;;;;-0.76;99.18;101579.34;1840294;78;21076;-56
2020/12/08 05:31:10;;;;;;;20.27;6.97;;;;;;;-0.77;98.67;101586.78;1840307;77;21615;-56
2020/12/08 05:33:41;;;;;;;20.60;6.75;;;;;;;-0.78;98.37;101608.67;1840313;78;21076;-57
2020/12/08 05:36:08;;;;;;;15.23;6.37;;;;;;;-0.77;98.27;101594.69;1840296;78;21687;-57
2020/12/08 05:38:38;;;;;;;19.62;7.40;;;;;;;-0.76;98.31;101608.31;1840209;78;20890;-57
2020/12/08 05:41:07;;;;;;;22.67;8.28;;;;;;;-0.76;98.36;101628.07;1840310;77;21037;-57
2020/12/08 05:43:42;;;;;;;23.25;7.17;;;;;;;-0.73;98.48;101603.13;1840156;77;21009;-57
2020/12/08 05:46:10;;;;;;;22.32;6.72;;;;;;;-0.70;98.53;101608.46;1840455;78;20958;-57
2020/12/08 05:48:37;;;;;;;24.97;7.73;;;;;;;-0.69;98.52;101615.52;1840195;78;21349;-56
2020/12/08 05:51:07;;;;;;;19.53;6.77;;;;;;;-0.68;98.72;101602.80;1840237;78;21051;-56
2020/12/08 05:53:34;;;;;;;24.77;7.27;;;;;;;-0.68;98.76;101612.03;1840158;78;21048;-57
2020/12/08 05:56:08;;;;;;;17.37;5.97;;;;;;;-0.68;98.50;101608.08;1840271;78;21100;-57
2020/12/08 05:58:36;;;;;;;24.18;7.75;;;;;;;-0.66;98.36;101631.39;1840335;78;21139;-56
2020/12/08 06:01:05;;;;;;;19.65;6.62;;;;;;;-0.63;98.41;101632.78;1840316;78;21298;-57
2020/12/08 06:03:34;;;;;;;20.80;6.87;;;;;;;-0.65;98.27;101626.58;1840191;78;21147;-57
2020/12/08 06:06:08;;;;;;;19.40;6.25;;;;;;;-0.66;98.45;101607.69;1840166;78;20977;-57
2020/12/08 06:08:44;;;;;;;19.92;6.08;;;;;;;-0.64;98.28;101634.95;1839923;78;21072;-57
2020/12/08 06:11:14;;;;;;;22.42;7.00;;;;;;;-0.68;97.85;101642.31;1840281;78;21013;-58
2020/12/08 06:13:47;;;;;;;17.82;5.72;;;;;;;-0.69;97.64;101627.37;1840306;78;21174;-56
2020/12/08 06:16:22;;;;;;;22.13;7.23;;;;;;;-0.67;98.05;101613.80;1839492;78;20894;-58
2020/12/08 06:18:51;;;;;;;41.15;7.72;;;;;;;-0.66;98.11;101620.86;1840427;78;20981;-58
2020/12/08 06:21:27;;;;;;;17.25;7.00;;;;;;;-0.65;98.17;101630.98;1840182;78;21104;-57
2020/12/08 06:23:59;;;;;;;23.90;6.50;;;;;;;-0.64;98.56;101616.52;1840154;77;21453;-57
2020/12/08 06:26:29;;;;;;;22.50;7.40;;;;;;;-0.63;98.46;101603.80;1840215;78;21398;-57
2020/12/08 06:28:57;;;;;;;23.83;7.23;;;;;;;-0.63;98.22;101618.73;1840246;78;21477;-57
2020/12/08 06:31:25;;;;;;;17.03;7.67;;;;;;;-0.63;98.26;101605.56;1840296;78;20910;-57
2020/12/08 06:33:55;;;;;;;20.75;8.55;;;;;;;-0.63;98.46;101603.80;1840169;77;21061;-57
2020/12/08 06:36:24;;;;;;;25.73;7.50;;;;;;;-0.62;98.35;101623.15;1840280;78;21041;-58
2020/12/08 06:39:07;;;;;;;20.10;7.20;;;;;;;-0.64;98.63;101621.78;1839740;78;22072;-57
2020/12/08 06:41:42;;;;;;;18.92;6.40;;;;;;;-0.63;98.87;101609.07;1840199;78;21068;-56
2020/12/08 06:44:19;;;;;;;22.30;7.28;;;;;;;-0.63;98.76;101632.78;1840276;78;21100;-57
2020/12/08 06:46:55;;;;;;;26.97;7.53;;;;;;;-0.66;98.32;101622.17;1840061;78;20933;-57
2020/12/08 06:49:38;;;;;;;30.30;7.92;;;;;;;-0.66;98.34;101608.12;1839956;78;21136;-59
2020/12/08 06:52:08;;;;;;;34.03;7.50;;;;;;;-0.66;98.55;101650.27;1839865;78;21357;-58
2020/12/08 06:54:36;;;;;;;17.45;6.53;;;;;;;-0.63;98.85;101639.36;1838902;78;21509;-57
2020/12/08 06:57:05;;;;;;;26.82;7.42;;;;;;;-0.60;98.75;101628.91;1839296;78;21171;-57
2020/12/08 06:59:33;;;;;;;15.75;6.65;;;;;;;-0.59;98.62;101625.86;1839428;77;21149;-57
2020/12/08 07:02:00;;;;;;;20.65;7.00;;;;;;;-0.58;98.40;101617.97;1839609;78;21119;-57
2020/12/08 07:04:29;;;;;;;20.12;5.97;;;;;;;-0.56;98.33;101610.53;1839752;77;21364;-58
2020/12/08 07:06:59;;;;;;;24.35;6.40;;;;;;;-0.54;98.39;101603.59;1839738;77;21171;-57
2020/12/08 07:09:33;;;;;;;22.22;6.65;;;;;;;-0.51;98.61;101614.20;1839927;78;21092;-59
2020/12/08 07:12:02;;;;;;;23.32;6.95;;;;;;;-0.48;98.48;101612.95;1840415;78;21103;-58
2020/12/08 07:14:31;;;;;;;27.70;7.65;;;;;;;-0.50;98.77;101613.34;1840211;78;21136;-58
2020/12/08 07:17:01;;;;;;;22.20;7.35;;;;;;;-0.50;99.51;101597.53;1840370;78;21201;-58
2020/12/08 07:22:18;;;;;;;22.50;7.87;;;;;;;-0.43;100.00;101595.50;1811836;77;26389;-57
2020/12/08 07:24:50;;;;;;;19.75;7.67;;;;;;;-0.49;100.00;101594.05;1701666;83;21581;-59
2020/12/08 07:27:18;;;;;;;20.72;7.80;;;;;;;-0.48;100.00;101611.19;1755253;80;22743;-59
2020/12/08 07:29:46;;;;;;;20.02;6.87;;;;;;;-0.46;100.00;101596.75;1753774;80;21047;-60
2020/12/08 07:32:13;;;;;;;15.83;6.65;;;;;;;-0.46;100.00;101582.26;1755098;80;20924;-58
2020/12/08 07:34:51;;;;;;;24.63;8.00;;;;;;;-0.47;100.00;101594.53;1762048;80;20988;-58
2020/12/08 07:37:20;;;;;;;26.42;9.08;;;;;;;-0.48;100.00;101655.11;1749246;81;21146;-60
2020/12/08 07:39:48;;;;;;;18.92;7.47;;;;;;;-0.49;100.00;101590.09;1756414;80;21349;-60
2020/12/08 07:42:18;;;;;;;24.60;9.10;;;;;;;-0.46;100.00;101605.97;1763672;80;21161;-60
2020/12/08 07:45:00;;;;;;;25.08;8.80;;;;;;;-0.41;100.00;101614.88;1768037;80;20985;-59
2020/12/08 07:47:29;;;;;;;20.48;7.70;;;;;;;-0.40;100.00;101617.97;1756151;80;21183;-59
2020/12/08 07:49:57;;;;;;;21.33;7.40;;;;;;;-0.41;100.00;101603.02;1758777;80;21158;-60
2020/12/08 07:52:26;;;;;;;21.42;7.25;;;;;;;-0.42;100.00;101598.59;1763471;80;21359;-60
2020/12/08 07:54:56;;;;;;;23.02;7.30;;;;;;;-0.43;100.00;101602.09;1759407;80;21600;-59
2020/12/08 07:57:27;;;;;;;17.55;7.78;;;;;;;-0.44;100.00;101606.89;1776460;80;21186;-61
2020/12/08 07:59:58;;;;;;;20.62;8.23;;;;;;;-0.42;100.00;101615.73;1777394;80;21151;-59
2020/12/08 08:02:28;;;;;;;23.13;8.20;;;;;;;-0.40;100.00;101603.92;1768076;80;21130;-59
2020/12/08 08:04:57;;;;;;;24.65;7.28;;;;;;;-0.40;100.00;101616.65;1769219;80;21381;-61
2020/12/08 08:07:28;;;;;;;28.80;7.45;;;;;;;-0.44;100.00;101598.99;1754794;80;21162;-60
2020/12/08 08:09:57;;;;;;;17.23;6.72;;;;;;;-0.47;100.00;101608.14;1762677;80;21162;-60
2020/12/08 08:12:28;;;;;;;23.63;8.23;;;;;;;-0.51;100.00;101622.10;1752226;80;21110;-59
2020/12/08 08:14:57;;;;;;;20.90;8.50;;;;;;;-0.54;100.00;101603.14;1761084;80;21546;-59
2020/12/08 08:17:26;;;;;;;30.68;8.78;;;;;;;-0.52;100.00;101605.83;1766090;80;22083;-59
2020/12/08 08:19:55;;;;;;;25.97;8.38;;;;;;;-0.52;100.00;101638.77;1751808;80;21220;-59
2020/12/08 08:22:25;;;;;;;28.38;8.23;;;;;;;-0.55;100.00;101620.22;1734787;81;21511;-60
2020/12/08 08:24:54;;;;;;;18.77;7.83;;;;;;;-0.58;100.00;101596.89;1757337;81;21531;-60
2020/12/08 08:27:23;;;;;;;31.80;9.23;;;;;;;-0.55;100.00;101624.17;1753607;80;21130;-59
2020/12/08 08:29:52;;;;;;;24.37;8.23;;;;;;;-0.53;100.00;101595.70;1774639;80;21268;-59
2020/12/08 08:32:20;;;;;;;24.32;9.18;;;;;;;-0.49;100.00;101625.66;1751428;80;21170;-61
2020/12/08 08:34:48;;;;;;;25.90;8.17;;;;;;;-0.47;100.00;101581.80;1761798;80;21131;-59
2020/12/08 08:37:16;;;;;;;25.30;8.20;;;;;;;-0.47;100.00;101591.02;1766737;80;21173;-60
2020/12/08 08:39:44;;;;;;;24.85;8.68;;;;;;;-0.45;100.00;101591.94;1768102;80;21059;-60
2020/12/08 08:42:12;;;;;;;26.87;8.63;;;;;;;-0.42;100.00;101605.19;1774473;80;21231;-60
2020/12/08 08:44:40;;;;;;;19.73;8.33;;;;;;;-0.41;100.00;101580.61;1765602;80;21156;-59
2020/12/08 08:47:09;;;;;;;21.43;7.80;;;;;;;-0.39;100.00;101593.40;1758505;80;21063;-59
2020/12/08 08:49:37;;;;;;;28.47;9.33;;;;;;;-0.39;100.00;101581.53;1752575;81;21629;-60
2020/12/08 08:52:05;;;;;;;23.07;7.80;;;;;;;-0.38;100.00;101581.12;1770355;80;21466;-60
2020/12/08 08:54:33;;;;;;;25.80;8.25;;;;;;;-0.38;100.00;101601.77;1767632;80;22268;-60
2020/12/08 08:57:02;;;;;;;34.60;8.73;;;;;;;-0.35;100.00;101600.52;1702191;83;21535;-59
2020/12/08 08:59:30;;;;;;;31.35;9.00;;;;;;;-0.31;100.00;101581.31;1694226;83;21076;-58
2020/12/08 09:01:58;;;;;;;24.15;9.70;;;;;;;-0.28;100.00;101554.56;1703549;83;21110;-60
2020/12/08 09:04:26;;;;;;;25.50;7.90;;;;;;;-0.26;100.00;101551.08;1739653;81;21055;-60
2020/12/08 09:06:54;;;;;;;24.75;8.48;;;;;;;-0.24;100.00;101543.23;1711286;82;21230;-59
2020/12/08 09:09:22;;;;;;;31.68;8.80;;;;;;;-0.20;100.00;101543.34;1719759;82;21218;-59
2020/12/08 09:11:51;;;;;;;35.27;9.40;;;;;;;-0.15;100.00;101543.41;1681199;83;21157;-59
2020/12/08 09:14:20;;;;;;;26.48;8.30;;;;;;;-0.14;100.00;101566.28;1722898;82;21173;-61
2020/12/08 09:16:49;;;;;;;33.92;9.10;;;;;;;-0.13;100.00;101560.16;1697202;83;21147;-61
2020/12/08 09:19:17;;;;;;;25.40;8.88;;;;;;;-0.14;100.00;101529.38;1702890;83;21445;-61
2020/12/08 09:21:54;;;;;;;22.42;8.15;;;;;;;-0.11;100.00;101512.34;1702175;83;21169;-60
2020/12/08 09:24:22;;;;;;;30.52;8.45;;;;;;;-0.06;100.00;101534.82;1696871;83;21071;-60
2020/12/08 09:26:50;;;;;;;35.78;7.95;;;;;;;-0.08;100.00;101558.53;1692972;83;21096;-60
2020/12/08 09:29:19;;;;;;;19.45;8.08;;;;;;;-0.09;100.00;101538.30;1691874;84;21190;-61
2020/12/08 09:31:47;;;;;;;25.08;7.55;;;;;;;-0.08;100.00;101511.08;1691810;84;22328;-60
2020/12/08 09:34:16;;;;;;;18.40;7.95;;;;;;;-0.06;100.00;101516.36;1688697;83;21160;-61
2020/12/08 09:36:44;;;;;;;23.92;7.17;;;;;;;-0.06;100.00;101501.45;1734967;82;21183;-61
2020/12/08 09:39:14;;;;;;;23.83;7.47;;;;;;;-0.06;100.00;101523.86;1721594;82;21198;-61
2020/12/08 09:41:42;;;;;;;30.15;8.43;;;;;;;-0.05;100.00;101496.64;1713849;82;21115;-61
2020/12/08 09:44:10;;;;;;;26.62;8.53;;;;;;;-0.03;100.00;101500.20;1724040;82;21374;-60
2020/12/08 09:46:39;;;;;;;26.87;8.43;;;;;;;0.01;100.00;101504.20;1722495;82;21102;-61
2020/12/08 09:49:08;;;;;;;22.73;9.55;;;;;;;0.03;100.00;101502.48;1717262;81;21086;-61
2020/12/08 09:51:37;;;;;;;31.45;9.20;;;;;;;0.01;100.00;101517.39;1751125;80;21181;-60
2020/12/08 09:54:06;;;;;;;21.10;8.13;;;;;;;0.04;100.00;101492.41;1716004;82;21194;-61
2020/12/08 09:56:34;;;;;;;22.27;7.33;;;;;;;0.07;100.00;101501.69;1711231;82;22182;-62
2020/12/08 09:59:02;;;;;;;20.15;7.28;;;;;;;0.07;100.00;101481.50;1711815;83;21085;-59
2020/12/08 10:01:33;;;;;;;24.50;8.75;;;;;;;0.10;100.00;101475.38;1719774;81;21202;-60
2020/12/08 10:04:01;;;;;;;21.05;6.75;;;;;;;0.12;100.00;101498.73;1704071;81;21220;-60
2020/12/08 10:06:29;;;;;;;21.50;7.40;;;;;;;0.18;100.00;101516.41;1717463;82;21194;-61
2020/12/08 10:08:57;;;;;;;22.40;7.28;;;;;;;0.18;100.00;101497.53;1708044;83;21219;-58
2020/12/08 10:11:26;;;;;;;21.73;9.00;;;;;;;0.17;100.00;101502.35;1735564;82;21615;-59
2020/12/08 10:13:55;;;;;;;18.40;7.10;;;;;;;0.16;100.00;101471.56;1712285;82;21368;-58
2020/12/08 10:16:25;;;;;;;24.95;7.15;;;;;;;0.17;100.00;101506.31;1752201;80;21241;-57
2020/12/08 10:18:55;;;;;;;17.25;6.92;;;;;;;0.20;100.00;101457.98;1756869;80;21079;-57
2020/12/08 10:21:24;;;;;;;29.65;7.50;;;;;;;0.24;100.00;101514.80;1765791;80;22029;-58
2020/12/08 10:23:53;;;;;;;21.40;7.70;;;;;;;0.26;100.00;101466.91;1759668;80;21202;-58
2020/12/08 10:26:22;;;;;;;30.82;7.28;;;;;;;0.26;100.00;101466.91;1748878;80;21171;-59
2020/12/08 10:28:51;;;;;;;30.95;7.75;;;;;;;0.31;100.00;101470.06;1762134;80;21174;-59
2020/12/08 10:31:19;;;;;;;21.05;7.22;;;;;;;0.37;100.00;101505.81;1763338;80;21233;-57
2020/12/08 10:33:48;;;;;;;29.92;7.47;;;;;;;0.41;100.00;101470.71;1771251;80;22280;-58
2020/12/08 10:36:16;;;;;;;23.20;8.68;;;;;;;0.44;100.00;101497.15;1759038;80;21078;-57
2020/12/08 10:38:45;;;;;;;27.85;7.83;;;;;;;0.42;100.00;101486.55;1765172;80;21268;-57
2020/12/08 10:41:14;;;;;;;23.05;7.12;;;;;;;0.42;100.00;101512.06;1755228;80;21194;-57
2020/12/08 10:43:43;;;;;;;18.75;7.72;;;;;;;0.39;100.00;101468.03;1756498;80;21308;-58
2020/12/08 10:46:11;;;;;;;21.52;7.58;;;;;;;0.38;100.00;101479.44;1750392;80;21296;-58
2020/12/08 10:48:39;;;;;;;34.90;7.90;;;;;;;0.40;100.00;101480.36;1704782;80;21260;-58
2020/12/08 10:51:08;;;;;;;24.63;7.37;;;;;;;0.36;100.00;101477.66;1774749;80;21139;-58
2020/12/08 10:53:36;;;;;;;21.20;7.25;;;;;;;0.31;100.00;101481.94;1751197;80;21194;-58
2020/12/08 10:56:05;;;;;;;29.52;7.78;;;;;;;0.30;100.00;101483.70;1764042;80;21171;-57
2020/12/08 10:58:33;;;;;;;18.82;6.50;;;;;;;0.31;100.00;101510.95;1759489;80;21236;-58
2020/12/08 11:01:02;;;;;;;22.55;6.72;;;;;;;0.32;100.00;101466.56;1755995;80;21277;-57
2020/12/08 11:03:30;;;;;;;23.35;6.95;;;;;;;0.31;100.00;101495.13;1755859;80;21238;-58
2020/12/08 11:05:59;;;;;;;15.40;6.10;;;;;;;0.30;100.00;101492.02;1761314;80;21123;-58
2020/12/08 11:08:27;;;;;;;20.32;7.92;;;;;;;0.31;100.00;101475.34;1753208;80;21067;-57
2020/12/08 11:10:55;;;;;;;17.60;6.80;;;;;;;0.32;100.00;101495.16;1749985;80;21388;-58
2020/12/08 11:13:23;;;;;;;25.27;7.40;;;;;;;0.33;100.00;101449.88;1756414;80;21106;-58
2020/12/08 11:15:53;;;;;;;35.90;8.80;;;;;;;0.32;100.00;101462.60;1749364;80;21205;-58
2020/12/08 11:18:21;;;;;;;21.77;6.97;;;;;;;0.28;100.00;101459.91;1760992;80;21070;-57
2020/12/08 11:20:50;;;;;;;24.85;8.13;;;;;;;0.28;100.00;101481.02;1779054;80;21134;-58
2020/12/08 11:23:18;;;;;;;20.02;6.83;;;;;;;0.26;100.00;101456.36;1760180;80;21696;-58